sensor_id;sensor_type;location;lat;lon;timestamp;P1;durP1;ratioP1;P2;durP2;ratioP2
39888;SDS011;25563;50.844;4.308;2023-11-19T00:02:18;10.52;;;3.85;;
39888;SDS011;25563;50.844;4.308;2023-11-19T00:04:46;9.35;;;4.47;;
39888;SDS011;25563;50.844;4.308;2023-11-19T00:07:12;13.55;;;5.40;;
39888;SDS011;25563;50.844;4.308;2023-11-19T00:09:39;9.55;;;3.95;;
39888;SDS011;25563;50.844;4.308;2023-11-19T00:12:07;7.85;;;3.88;;
39888;SDS011;25563;50.844;4.308;2023-11-19T00:14:33;8.82;;;4.32;;
39888;SDS011;25563;50.844;4.308;2023-11-19T00:16:59;10.10;;;5.00;;
39888;SDS011;25563;50.844;4.308;2023-11-19T00:19:25;20.83;;;4.60;;
39888;SDS011;25563;50.844;4.308;2023-11-19T00:21:51;5.00;;;3.35;;
39888;SDS011;25563;50.844;4.308;2023-11-19T00:24:18;9.60;;;4.63;;
39888;SDS011;25563;50.844;4.308;2023-11-19T00:26:45;13.93;;;4.10;;
39888;SDS011;25563;50.844;4.308;2023-11-19T00:29:11;9.38;;;3.63;;
39888;SDS011;25563;50.844;4.308;2023-11-19T00:31:39;10.50;;;3.60;;
39888;SDS011;25563;50.844;4.308;2023-11-19T00:34:04;13.95;;;3.78;;
39888;SDS011;25563;50.844;4.308;2023-11-19T00:36:31;13.30;;;3.60;;
39888;SDS011;25563;50.844;4.308;2023-11-19T00:38:57;11.88;;;3.47;;
39888;SDS011;25563;50.844;4.308;2023-11-19T00:41:23;8.50;;;3.70;;
39888;SDS011;25563;50.844;4.308;2023-11-19T00:43:50;8.10;;;3.35;;
39888;SDS011;25563;50.844;4.308;2023-11-19T00:46:16;9.50;;;4.05;;
39888;SDS011;25563;50.844;4.308;2023-11-19T00:48:42;13.25;;;4.00;;
39888;SDS011;25563;50.844;4.308;2023-11-19T00:51:08;10.70;;;3.35;;
39888;SDS011;25563;50.844;4.308;2023-11-19T00:53:33;12.98;;;3.72;;
39888;SDS011;25563;50.844;4.308;2023-11-19T00:55:59;18.17;;;3.30;;
39888;SDS011;25563;50.844;4.308;2023-11-19T00:58:25;14.52;;;4.03;;
39888;SDS011;25563;50.844;4.308;2023-11-19T01:00:52;17.83;;;3.15;;
39888;SDS011;25563;50.844;4.308;2023-11-19T01:03:17;14.40;;;4.18;;
39888;SDS011;25563;50.844;4.308;2023-11-19T01:05:44;21.55;;;3.75;;
39888;SDS011;25563;50.844;4.308;2023-11-19T01:08:11;17.77;;;2.97;;
39888;SDS011;25563;50.844;4.308;2023-11-19T01:10:37;18.20;;;4.07;;
39888;SDS011;25563;50.844;4.308;2023-11-19T01:13:05;16.58;;;2.90;;
39888;SDS011;25563;50.844;4.308;2023-11-19T01:15:33;13.57;;;3.58;;
39888;SDS011;25563;50.844;4.308;2023-11-19T01:17:59;16.10;;;3.03;;
39888;SDS011;25563;50.844;4.308;2023-11-19T01:20:27;19.38;;;2.80;;
39888;SDS011;25563;50.844;4.308;2023-11-19T01:22:53;26.58;;;3.72;;
39888;SDS011;25563;50.844;4.308;2023-11-19T01:25:18;13.88;;;3.35;;
39888;SDS011;25563;50.844;4.308;2023-11-19T01:27:44;15.02;;;3.35;;
39888;SDS011;25563;50.844;4.308;2023-11-19T01:30:10;12.65;;;3.42;;
39888;SDS011;25563;50.844;4.308;2023-11-19T01:32:38;13.05;;;2.47;;
39888;SDS011;25563;50.844;4.308;2023-11-19T01:35:05;17.83;;;3.30;;
39888;SDS011;25563;50.844;4.308;2023-11-19T01:37:33;20.63;;;4.28;;
39888;SDS011;25563;50.844;4.308;2023-11-19T01:40:00;12.73;;;3.10;;
39888;SDS011;25563;50.844;4.308;2023-11-19T01:42:27;25.48;;;3.85;;
39888;SDS011;25563;50.844;4.308;2023-11-19T01:44:59;18.88;;;2.92;;
39888;SDS011;25563;50.844;4.308;2023-11-19T01:47:27;19.77;;;3.58;;
39888;SDS011;25563;50.844;4.308;2023-11-19T01:49:58;15.93;;;3.15;;
39888;SDS011;25563;50.844;4.308;2023-11-19T01:52:24;22.05;;;3.53;;
39888;SDS011;25563;50.844;4.308;2023-11-19T01:54:51;18.58;;;3.40;;
39888;SDS011;25563;50.844;4.308;2023-11-19T01:57:19;18.98;;;3.45;;
39888;SDS011;25563;50.844;4.308;2023-11-19T01:59:48;21.80;;;3.27;;
39888;SDS011;25563;50.844;4.308;2023-11-19T02:02:17;28.73;;;4.07;;
39888;SDS011;25563;50.844;4.308;2023-11-19T02:04:49;18.08;;;3.00;;
39888;SDS011;25563;50.844;4.308;2023-11-19T02:07:17;20.50;;;3.45;;
39888;SDS011;25563;50.844;4.308;2023-11-19T02:09:44;20.17;;;4.20;;
39888;SDS011;25563;50.844;4.308;2023-11-19T02:12:10;22.35;;;3.70;;
39888;SDS011;25563;50.844;4.308;2023-11-19T02:14:38;24.77;;;4.28;;
39888;SDS011;25563;50.844;4.308;2023-11-19T02:17:05;23.23;;;4.90;;
39888;SDS011;25563;50.844;4.308;2023-11-19T02:19:31;23.88;;;4.28;;
39888;SDS011;25563;50.844;4.308;2023-11-19T02:21:56;23.83;;;3.78;;
39888;SDS011;25563;50.844;4.308;2023-11-19T02:24:22;21.83;;;3.33;;
39888;SDS011;25563;50.844;4.308;2023-11-19T02:26:54;29.30;;;3.67;;
39888;SDS011;25563;50.844;4.308;2023-11-19T02:29:35;22.25;;;3.58;;
39888;SDS011;25563;50.844;4.308;2023-11-19T02:32:01;29.65;;;4.65;;
39888;SDS011;25563;50.844;4.308;2023-11-19T02:34:28;28.00;;;3.55;;
39888;SDS011;25563;50.844;4.308;2023-11-19T02:36:54;24.85;;;3.60;;
39888;SDS011;25563;50.844;4.308;2023-11-19T02:39:19;26.42;;;4.55;;
39888;SDS011;25563;50.844;4.308;2023-11-19T02:41:47;23.77;;;4.50;;
39888;SDS011;25563;50.844;4.308;2023-11-19T02:44:15;21.80;;;3.45;;
39888;SDS011;25563;50.844;4.308;2023-11-19T02:46:41;27.85;;;4.68;;
39888;SDS011;25563;50.844;4.308;2023-11-19T02:49:07;24.02;;;4.97;;
39888;SDS011;25563;50.844;4.308;2023-11-19T02:51:33;25.38;;;3.53;;
39888;SDS011;25563;50.844;4.308;2023-11-19T02:54:00;25.83;;;4.50;;
39888;SDS011;25563;50.844;4.308;2023-11-19T02:56:25;16.70;;;3.45;;
39888;SDS011;25563;50.844;4.308;2023-11-19T02:58:54;21.17;;;4.25;;
39888;SDS011;25563;50.844;4.308;2023-11-19T03:01:24;24.88;;;3.50;;
39888;SDS011;25563;50.844;4.308;2023-11-19T03:03:55;23.63;;;4.55;;
39888;SDS011;25563;50.844;4.308;2023-11-19T03:06:23;17.75;;;3.13;;
39888;SDS011;25563;50.844;4.308;2023-11-19T03:08:49;19.23;;;3.38;;
39888;SDS011;25563;50.844;4.308;2023-11-19T03:11:15;20.83;;;3.53;;
39888;SDS011;25563;50.844;4.308;2023-11-19T03:13:40;23.25;;;3.85;;
39888;SDS011;25563;50.844;4.308;2023-11-19T03:16:06;25.60;;;4.10;;
39888;SDS011;25563;50.844;4.308;2023-11-19T03:18:32;21.70;;;3.95;;
39888;SDS011;25563;50.844;4.308;2023-11-19T03:20:58;17.33;;;3.47;;
39888;SDS011;25563;50.844;4.308;2023-11-19T03:23:25;24.73;;;4.78;;
39888;SDS011;25563;50.844;4.308;2023-11-19T03:25:53;21.55;;;3.17;;
39888;SDS011;25563;50.844;4.308;2023-11-19T03:28:19;20.20;;;3.75;;
39888;SDS011;25563;50.844;4.308;2023-11-19T03:30:44;31.90;;;4.10;;
39888;SDS011;25563;50.844;4.308;2023-11-19T03:33:10;30.42;;;4.60;;
39888;SDS011;25563;50.844;4.308;2023-11-19T03:35:39;30.60;;;4.27;;
39888;SDS011;25563;50.844;4.308;2023-11-19T03:38:07;28.20;;;5.18;;
39888;SDS011;25563;50.844;4.308;2023-11-19T03:40:34;29.90;;;4.20;;
39888;SDS011;25563;50.844;4.308;2023-11-19T03:43:03;21.75;;;4.22;;
39888;SDS011;25563;50.844;4.308;2023-11-19T03:45:30;27.17;;;4.15;;
39888;SDS011;25563;50.844;4.308;2023-11-19T03:47:57;25.02;;;4.80;;
39888;SDS011;25563;50.844;4.308;2023-11-19T03:50:23;17.27;;;3.75;;
39888;SDS011;25563;50.844;4.308;2023-11-19T03:52:50;17.95;;;3.38;;
39888;SDS011;25563;50.844;4.308;2023-11-19T03:55:15;22.58;;;3.97;;
39888;SDS011;25563;50.844;4.308;2023-11-19T03:57:42;21.83;;;3.90;;
39888;SDS011;25563;50.844;4.308;2023-11-19T04:00:07;26.60;;;3.92;;
39888;SDS011;25563;50.844;4.308;2023-11-19T04:02:39;31.98;;;5.63;;
39888;SDS011;25563;50.844;4.308;2023-11-19T04:05:05;39.20;;;5.05;;
39888;SDS011;25563;50.844;4.308;2023-11-19T04:07:32;25.90;;;3.83;;
39888;SDS011;25563;50.844;4.308;2023-11-19T04:09:57;20.75;;;4.00;;
39888;SDS011;25563;50.844;4.308;2023-11-19T04:12:23;23.90;;;4.75;;
39888;SDS011;25563;50.844;4.308;2023-11-19T04:14:49;38.10;;;5.97;;
39888;SDS011;25563;50.844;4.308;2023-11-19T04:17:15;31.42;;;5.65;;
39888;SDS011;25563;50.844;4.308;2023-11-19T04:19:41;28.45;;;5.55;;
39888;SDS011;25563;50.844;4.308;2023-11-19T04:22:09;31.88;;;5.20;;
39888;SDS011;25563;50.844;4.308;2023-11-19T04:24:35;24.02;;;4.53;;
39888;SDS011;25563;50.844;4.308;2023-11-19T04:27:02;35.88;;;4.53;;
39888;SDS011;25563;50.844;4.308;2023-11-19T04:29:29;30.75;;;5.85;;
39888;SDS011;25563;50.844;4.308;2023-11-19T04:31:56;28.42;;;5.28;;
39888;SDS011;25563;50.844;4.308;2023-11-19T04:34:22;36.72;;;5.05;;
39888;SDS011;25563;50.844;4.308;2023-11-19T04:36:47;35.40;;;5.35;;
39888;SDS011;25563;50.844;4.308;2023-11-19T04:39:14;34.92;;;5.40;;
39888;SDS011;25563;50.844;4.308;2023-11-19T04:41:49;26.92;;;4.20;;
39888;SDS011;25563;50.844;4.308;2023-11-19T04:44:19;45.63;;;5.82;;
39888;SDS011;25563;50.844;4.308;2023-11-19T04:46:45;46.90;;;6.32;;
39888;SDS011;25563;50.844;4.308;2023-11-19T04:49:11;40.15;;;6.45;;
39888;SDS011;25563;50.844;4.308;2023-11-19T04:51:38;32.10;;;5.03;;
39888;SDS011;25563;50.844;4.308;2023-11-19T04:54:05;35.08;;;5.47;;
39888;SDS011;25563;50.844;4.308;2023-11-19T04:56:32;33.85;;;6.35;;
39888;SDS011;25563;50.844;4.308;2023-11-19T04:58:58;33.83;;;5.63;;
39888;SDS011;25563;50.844;4.308;2023-11-19T05:01:25;31.25;;;5.43;;
39888;SDS011;25563;50.844;4.308;2023-11-19T05:03:51;40.65;;;5.95;;
39888;SDS011;25563;50.844;4.308;2023-11-19T05:06:17;46.72;;;5.57;;
39888;SDS011;25563;50.844;4.308;2023-11-19T05:08:43;28.92;;;5.80;;
39888;SDS011;25563;50.844;4.308;2023-11-19T05:11:09;45.15;;;6.07;;
39888;SDS011;25563;50.844;4.308;2023-11-19T05:13:37;40.45;;;5.45;;
39888;SDS011;25563;50.844;4.308;2023-11-19T05:16:03;31.48;;;6.53;;
39888;SDS011;25563;50.844;4.308;2023-11-19T05:18:29;29.95;;;5.95;;
39888;SDS011;25563;50.844;4.308;2023-11-19T05:20:55;31.40;;;4.85;;
39888;SDS011;25563;50.844;4.308;2023-11-19T05:23:21;46.72;;;5.00;;
39888;SDS011;25563;50.844;4.308;2023-11-19T05:25:46;36.28;;;4.88;;
39888;SDS011;25563;50.844;4.308;2023-11-19T05:28:13;30.08;;;5.28;;
39888;SDS011;25563;50.844;4.308;2023-11-19T05:30:39;33.42;;;6.00;;
39888;SDS011;25563;50.844;4.308;2023-11-19T05:33:05;37.38;;;4.38;;
39888;SDS011;25563;50.844;4.308;2023-11-19T05:35:33;32.30;;;5.38;;
39888;SDS011;25563;50.844;4.308;2023-11-19T05:37:59;38.80;;;6.38;;
39888;SDS011;25563;50.844;4.308;2023-11-19T05:40:25;35.92;;;5.15;;
39888;SDS011;25563;50.844;4.308;2023-11-19T05:42:51;36.78;;;6.22;;
39888;SDS011;25563;50.844;4.308;2023-11-19T05:45:17;39.83;;;6.20;;
39888;SDS011;25563;50.844;4.308;2023-11-19T05:47:43;45.15;;;6.97;;
39888;SDS011;25563;50.844;4.308;2023-11-19T05:50:11;45.38;;;7.35;;
39888;SDS011;25563;50.844;4.308;2023-11-19T05:52:37;48.20;;;5.53;;
39888;SDS011;25563;50.844;4.308;2023-11-19T05:55:03;53.45;;;7.35;;
39888;SDS011;25563;50.844;4.308;2023-11-19T05:57:30;46.00;;;6.93;;
39888;SDS011;25563;50.844;4.308;2023-11-19T05:59:56;42.90;;;7.25;;
39888;SDS011;25563;50.844;4.308;2023-11-19T06:02:23;51.30;;;7.07;;
39888;SDS011;25563;50.844;4.308;2023-11-19T06:04:49;47.10;;;6.07;;
39888;SDS011;25563;50.844;4.308;2023-11-19T06:07:15;51.55;;;6.40;;
39888;SDS011;25563;50.844;4.308;2023-11-19T06:09:41;44.75;;;5.47;;
39888;SDS011;25563;50.844;4.308;2023-11-19T06:12:07;58.65;;;6.60;;
39888;SDS011;25563;50.844;4.308;2023-11-19T06:14:33;42.90;;;8.13;;
39888;SDS011;25563;50.844;4.308;2023-11-19T06:16:58;48.40;;;6.45;;
39888;SDS011;25563;50.844;4.308;2023-11-19T06:19:24;37.30;;;6.88;;
39888;SDS011;25563;50.844;4.308;2023-11-19T06:21:50;41.63;;;5.43;;
39888;SDS011;25563;50.844;4.308;2023-11-19T06:24:16;43.97;;;6.53;;
39888;SDS011;25563;50.844;4.308;2023-11-19T06:26:42;44.72;;;6.40;;
39888;SDS011;25563;50.844;4.308;2023-11-19T06:29:08;41.15;;;6.22;;
39888;SDS011;25563;50.844;4.308;2023-11-19T06:31:34;33.17;;;5.22;;
39888;SDS011;25563;50.844;4.308;2023-11-19T06:33:59;39.63;;;5.50;;
39888;SDS011;25563;50.844;4.308;2023-11-19T06:36:25;43.88;;;6.55;;
39888;SDS011;25563;50.844;4.308;2023-11-19T06:38:51;38.15;;;5.82;;
39888;SDS011;25563;50.844;4.308;2023-11-19T06:41:17;47.30;;;7.00;;
39888;SDS011;25563;50.844;4.308;2023-11-19T06:43:43;45.63;;;6.45;;
39888;SDS011;25563;50.844;4.308;2023-11-19T06:46:16;39.83;;;5.80;;
39888;SDS011;25563;50.844;4.308;2023-11-19T06:48:44;35.25;;;5.82;;
39888;SDS011;25563;50.844;4.308;2023-11-19T06:51:10;47.45;;;7.30;;
39888;SDS011;25563;50.844;4.308;2023-11-19T06:53:36;42.55;;;6.57;;
39888;SDS011;25563;50.844;4.308;2023-11-19T06:56:02;29.55;;;4.95;;
39888;SDS011;25563;50.844;4.308;2023-11-19T06:58:31;35.50;;;5.57;;
39888;SDS011;25563;50.844;4.308;2023-11-19T07:01:00;52.67;;;6.95;;
39888;SDS011;25563;50.844;4.308;2023-11-19T07:03:26;45.30;;;5.93;;
39888;SDS011;25563;50.844;4.308;2023-11-19T07:05:53;34.00;;;5.45;;
39888;SDS011;25563;50.844;4.308;2023-11-19T07:08:20;51.25;;;6.97;;
39888;SDS011;25563;50.844;4.308;2023-11-19T07:10:47;46.88;;;7.00;;
39888;SDS011;25563;50.844;4.308;2023-11-19T07:13:22;49.25;;;6.50;;
39888;SDS011;25563;50.844;4.308;2023-11-19T07:16:07;44.78;;;6.05;;
39888;SDS011;25563;50.844;4.308;2023-11-19T07:18:35;50.15;;;6.93;;
39888;SDS011;25563;50.844;4.308;2023-11-19T07:21:01;60.58;;;7.07;;
39888;SDS011;25563;50.844;4.308;2023-11-19T07:23:28;42.10;;;6.68;;
39888;SDS011;25563;50.844;4.308;2023-11-19T07:25:53;47.67;;;6.93;;
39888;SDS011;25563;50.844;4.308;2023-11-19T07:28:19;41.25;;;7.07;;
39888;SDS011;25563;50.844;4.308;2023-11-19T07:30:45;40.20;;;6.53;;
39888;SDS011;25563;50.844;4.308;2023-11-19T07:33:11;55.05;;;7.20;;
39888;SDS011;25563;50.844;4.308;2023-11-19T07:35:38;44.40;;;6.18;;
39888;SDS011;25563;50.844;4.308;2023-11-19T07:38:06;47.08;;;7.20;;
39888;SDS011;25563;50.844;4.308;2023-11-19T07:40:32;47.35;;;6.65;;
39888;SDS011;25563;50.844;4.308;2023-11-19T07:43:01;42.03;;;7.57;;
39888;SDS011;25563;50.844;4.308;2023-11-19T07:45:27;46.75;;;7.35;;
39888;SDS011;25563;50.844;4.308;2023-11-19T07:47:53;50.10;;;6.93;;
39888;SDS011;25563;50.844;4.308;2023-11-19T07:50:19;46.00;;;6.38;;
39888;SDS011;25563;50.844;4.308;2023-11-19T07:52:45;39.53;;;5.25;;
39888;SDS011;25563;50.844;4.308;2023-11-19T07:55:11;51.50;;;6.43;;
39888;SDS011;25563;50.844;4.308;2023-11-19T07:57:37;39.05;;;6.03;;
39888;SDS011;25563;50.844;4.308;2023-11-19T08:00:04;27.52;;;6.05;;
39888;SDS011;25563;50.844;4.308;2023-11-19T08:02:30;41.20;;;7.20;;
39888;SDS011;25563;50.844;4.308;2023-11-19T08:04:56;40.60;;;5.35;;
39888;SDS011;25563;50.844;4.308;2023-11-19T08:07:24;39.20;;;5.55;;
39888;SDS011;25563;50.844;4.308;2023-11-19T08:09:50;47.47;;;6.32;;
39888;SDS011;25563;50.844;4.308;2023-11-19T08:12:15;40.90;;;5.60;;
39888;SDS011;25563;50.844;4.308;2023-11-19T08:14:42;35.08;;;5.50;;
39888;SDS011;25563;50.844;4.308;2023-11-19T08:17:09;31.35;;;6.40;;
39888;SDS011;25563;50.844;4.308;2023-11-19T08:19:35;26.08;;;4.40;;
39888;SDS011;25563;50.844;4.308;2023-11-19T08:22:01;37.50;;;5.75;;
39888;SDS011;25563;50.844;4.308;2023-11-19T08:24:27;45.03;;;6.63;;
39888;SDS011;25563;50.844;4.308;2023-11-19T08:26:53;36.72;;;6.85;;
39888;SDS011;25563;50.844;4.308;2023-11-19T08:29:19;27.20;;;4.95;;
39888;SDS011;25563;50.844;4.308;2023-11-19T08:31:46;40.92;;;4.85;;
39888;SDS011;25563;50.844;4.308;2023-11-19T08:34:12;37.22;;;5.35;;
39888;SDS011;25563;50.844;4.308;2023-11-19T08:36:39;43.85;;;5.32;;
39888;SDS011;25563;50.844;4.308;2023-11-19T08:39:05;35.72;;;5.95;;
39888;SDS011;25563;50.844;4.308;2023-11-19T08:41:33;27.33;;;4.78;;
39888;SDS011;25563;50.844;4.308;2023-11-19T08:43:59;29.20;;;5.43;;
39888;SDS011;25563;50.844;4.308;2023-11-19T08:46:26;39.83;;;5.38;;
39888;SDS011;25563;50.844;4.308;2023-11-19T08:48:52;30.63;;;5.72;;
39888;SDS011;25563;50.844;4.308;2023-11-19T08:51:22;41.72;;;6.30;;
39888;SDS011;25563;50.844;4.308;2023-11-19T08:53:50;49.78;;;6.25;;
39888;SDS011;25563;50.844;4.308;2023-11-19T08:56:15;40.00;;;6.03;;
39888;SDS011;25563;50.844;4.308;2023-11-19T08:58:42;36.60;;;5.25;;
39888;SDS011;25563;50.844;4.308;2023-11-19T09:01:08;26.67;;;4.93;;
39888;SDS011;25563;50.844;4.308;2023-11-19T09:03:34;45.22;;;6.22;;
39888;SDS011;25563;50.844;4.308;2023-11-19T09:06:02;35.00;;;4.82;;
39888;SDS011;25563;50.844;4.308;2023-11-19T09:08:28;33.35;;;6.05;;
39888;SDS011;25563;50.844;4.308;2023-11-19T09:10:54;37.13;;;6.07;;
39888;SDS011;25563;50.844;4.308;2023-11-19T09:13:20;27.90;;;4.45;;
39888;SDS011;25563;50.844;4.308;2023-11-19T09:15:46;35.35;;;5.07;;
39888;SDS011;25563;50.844;4.308;2023-11-19T09:18:12;25.58;;;5.22;;
39888;SDS011;25563;50.844;4.308;2023-11-19T09:20:38;35.03;;;5.28;;
39888;SDS011;25563;50.844;4.308;2023-11-19T09:23:04;31.67;;;5.25;;
39888;SDS011;25563;50.844;4.308;2023-11-19T09:25:31;31.10;;;5.10;;
39888;SDS011;25563;50.844;4.308;2023-11-19T09:27:57;31.45;;;5.07;;
39888;SDS011;25563;50.844;4.308;2023-11-19T09:30:22;27.15;;;4.28;;
39888;SDS011;25563;50.844;4.308;2023-11-19T09:32:48;35.15;;;4.97;;
39888;SDS011;25563;50.844;4.308;2023-11-19T09:35:14;26.60;;;5.43;;
39888;SDS011;25563;50.844;4.308;2023-11-19T09:37:42;22.00;;;3.65;;
39888;SDS011;25563;50.844;4.308;2023-11-19T09:40:08;32.85;;;5.43;;
39888;SDS011;25563;50.844;4.308;2023-11-19T09:42:38;30.73;;;4.85;;
39888;SDS011;25563;50.844;4.308;2023-11-19T09:45:15;34.35;;;4.93;;
39888;SDS011;25563;50.844;4.308;2023-11-19T09:47:43;29.60;;;5.05;;
39888;SDS011;25563;50.844;4.308;2023-11-19T09:50:17;32.17;;;5.18;;
39888;SDS011;25563;50.844;4.308;2023-11-19T09:52:44;28.05;;;5.57;;
39888;SDS011;25563;50.844;4.308;2023-11-19T09:55:10;24.10;;;5.25;;
39888;SDS011;25563;50.844;4.308;2023-11-19T09:57:37;21.58;;;5.15;;
39888;SDS011;25563;50.844;4.308;2023-11-19T10:00:05;27.75;;;5.57;;
39888;SDS011;25563;50.844;4.308;2023-11-19T10:02:33;37.78;;;5.63;;
39888;SDS011;25563;50.844;4.308;2023-11-19T10:05:04;24.15;;;4.03;;
39888;SDS011;25563;50.844;4.308;2023-11-19T10:07:35;26.55;;;4.80;;
39888;SDS011;25563;50.844;4.308;2023-11-19T10:10:02;18.98;;;4.00;;
39888;SDS011;25563;50.844;4.308;2023-11-19T10:12:32;32.22;;;5.13;;
39888;SDS011;25563;50.844;4.308;2023-11-19T10:15:01;25.25;;;4.43;;
39888;SDS011;25563;50.844;4.308;2023-11-19T10:17:34;26.48;;;5.20;;
39888;SDS011;25563;50.844;4.308;2023-11-19T10:20:00;33.28;;;5.50;;
39888;SDS011;25563;50.844;4.308;2023-11-19T10:22:27;29.27;;;4.75;;
39888;SDS011;25563;50.844;4.308;2023-11-19T10:24:54;26.50;;;4.40;;
39888;SDS011;25563;50.844;4.308;2023-11-19T10:27:23;33.50;;;5.43;;
39888;SDS011;25563;50.844;4.308;2023-11-19T10:29:50;33.78;;;6.00;;
39888;SDS011;25563;50.844;4.308;2023-11-19T10:32:19;33.33;;;5.00;;
39888;SDS011;25563;50.844;4.308;2023-11-19T10:34:45;34.97;;;6.15;;
39888;SDS011;25563;50.844;4.308;2023-11-19T10:37:44;23.63;;;4.75;;
39888;SDS011;25563;50.844;4.308;2023-11-19T10:40:04;35.10;;;6.07;;
39888;SDS011;25563;50.844;4.308;2023-11-19T10:42:30;30.73;;;5.25;;
39888;SDS011;25563;50.844;4.308;2023-11-19T10:44:57;21.90;;;3.88;;
39888;SDS011;25563;50.844;4.308;2023-11-19T10:47:27;21.15;;;3.78;;
39888;SDS011;25563;50.844;4.308;2023-11-19T10:49:56;23.20;;;3.47;;
39888;SDS011;25563;50.844;4.308;2023-11-19T10:52:23;23.98;;;5.40;;
39888;SDS011;25563;50.844;4.308;2023-11-19T10:54:52;27.50;;;4.13;;
39888;SDS011;25563;50.844;4.308;2023-11-19T10:57:22;20.20;;;3.47;;
39888;SDS011;25563;50.844;4.308;2023-11-19T10:59:55;28.00;;;4.65;;
39888;SDS011;25563;50.844;4.308;2023-11-19T11:02:27;25.92;;;4.53;;
39888;SDS011;25563;50.844;4.308;2023-11-19T11:04:54;28.77;;;4.97;;
39888;SDS011;25563;50.844;4.308;2023-11-19T11:07:22;35.95;;;6.05;;
39888;SDS011;25563;50.844;4.308;2023-11-19T11:09:51;30.25;;;5.85;;
39888;SDS011;25563;50.844;4.308;2023-11-19T11:12:19;34.75;;;4.97;;
39888;SDS011;25563;50.844;4.308;2023-11-19T11:14:49;19.63;;;4.68;;
39888;SDS011;25563;50.844;4.308;2023-11-19T11:17:17;34.92;;;5.05;;
39888;SDS011;25563;50.844;4.308;2023-11-19T11:19:43;23.88;;;4.88;;
39888;SDS011;25563;50.844;4.308;2023-11-19T11:22:09;30.85;;;5.60;;
39888;SDS011;25563;50.844;4.308;2023-11-19T11:24:42;44.55;;;5.38;;
39888;SDS011;25563;50.844;4.308;2023-11-19T11:38:21;30.58;;;5.82;;
39888;SDS011;25563;50.844;4.308;2023-11-19T11:43:56;30.85;;;5.20;;
39888;SDS011;25563;50.844;4.308;2023-11-19T11:49:01;32.78;;;5.28;;
39888;SDS011;25563;50.844;4.308;2023-11-19T11:57:01;25.55;;;5.20;;
39888;SDS011;25563;50.844;4.308;2023-11-19T11:59:48;19.50;;;4.05;;
39888;SDS011;25563;50.844;4.308;2023-11-19T12:02:15;14.63;;;3.90;;
39888;SDS011;25563;50.844;4.308;2023-11-19T12:04:43;25.98;;;4.22;;
39888;SDS011;25563;50.844;4.308;2023-11-19T12:07:32;26.20;;;3.92;;
39888;SDS011;25563;50.844;4.308;2023-11-19T12:10:07;20.65;;;4.13;;
39888;SDS011;25563;50.844;4.308;2023-11-19T12:12:37;18.42;;;4.05;;
39888;SDS011;25563;50.844;4.308;2023-11-19T12:15:09;24.38;;;3.85;;
39888;SDS011;25563;50.844;4.308;2023-11-19T12:17:36;15.18;;;3.30;;
39888;SDS011;25563;50.844;4.308;2023-11-19T12:20:06;23.27;;;3.92;;
39888;SDS011;25563;50.844;4.308;2023-11-19T12:22:39;12.20;;;4.13;;
39888;SDS011;25563;50.844;4.308;2023-11-19T12:25:12;16.60;;;3.95;;
39888;SDS011;25563;50.844;4.308;2023-11-19T12:27:43;21.00;;;4.22;;
39888;SDS011;25563;50.844;4.308;2023-11-19T12:30:23;21.65;;;4.07;;
39888;SDS011;25563;50.844;4.308;2023-11-19T12:32:50;22.13;;;3.63;;
39888;SDS011;25563;50.844;4.308;2023-11-19T12:35:18;15.50;;;3.83;;
39888;SDS011;25563;50.844;4.308;2023-11-19T12:37:48;25.38;;;4.53;;
39888;SDS011;25563;50.844;4.308;2023-11-19T12:40:16;18.08;;;4.25;;
39888;SDS011;25563;50.844;4.308;2023-11-19T12:42:47;28.67;;;4.53;;
39888;SDS011;25563;50.844;4.308;2023-11-19T12:47:43;21.17;;;4.20;;
39888;SDS011;25563;50.844;4.308;2023-11-19T12:50:09;28.05;;;4.47;;
39888;SDS011;25563;50.844;4.308;2023-11-19T12:52:36;24.73;;;5.40;;
39888;SDS011;25563;50.844;4.308;2023-11-19T12:55:03;23.77;;;4.15;;
39888;SDS011;25563;50.844;4.308;2023-11-19T12:57:36;26.40;;;5.25;;
39888;SDS011;25563;50.844;4.308;2023-11-19T13:00:05;32.17;;;5.30;;
39888;SDS011;25563;50.844;4.308;2023-11-19T13:02:47;26.13;;;4.70;;
39888;SDS011;25563;50.844;4.308;2023-11-19T13:05:27;34.08;;;5.38;;
39888;SDS011;25563;50.844;4.308;2023-11-19T13:08:06;23.98;;;5.25;;
39888;SDS011;25563;50.844;4.308;2023-11-19T13:10:36;22.13;;;5.00;;
39888;SDS011;25563;50.844;4.308;2023-11-19T13:13:20;16.77;;;3.58;;
39888;SDS011;25563;50.844;4.308;2023-11-19T13:15:45;23.17;;;4.60;;
39888;SDS011;25563;50.844;4.308;2023-11-19T13:18:11;21.40;;;4.57;;
39888;SDS011;25563;50.844;4.308;2023-11-19T13:20:38;31.35;;;5.63;;
39888;SDS011;25563;50.844;4.308;2023-11-19T13:23:05;24.98;;;4.35;;
39888;SDS011;25563;50.844;4.308;2023-11-19T13:25:32;26.25;;;4.78;;
39888;SDS011;25563;50.844;4.308;2023-11-19T13:27:58;32.83;;;5.47;;
39888;SDS011;25563;50.844;4.308;2023-11-19T13:30:24;26.38;;;5.28;;
39888;SDS011;25563;50.844;4.308;2023-11-19T13:32:54;27.00;;;4.80;;
39888;SDS011;25563;50.844;4.308;2023-11-19T13:35:22;30.05;;;4.75;;
39888;SDS011;25563;50.844;4.308;2023-11-19T13:37:48;21.83;;;5.80;;
39888;SDS011;25563;50.844;4.308;2023-11-19T13:40:14;22.70;;;4.05;;
39888;SDS011;25563;50.844;4.308;2023-11-19T13:42:41;41.00;;;5.70;;
39888;SDS011;25563;50.844;4.308;2023-11-19T13:45:08;31.63;;;5.18;;
39888;SDS011;25563;50.844;4.308;2023-11-19T13:47:44;35.10;;;5.43;;
39888;SDS011;25563;50.844;4.308;2023-11-19T13:50:14;27.40;;;5.22;;
39888;SDS011;25563;50.844;4.308;2023-11-19T13:52:43;25.40;;;4.45;;
39888;SDS011;25563;50.844;4.308;2023-11-19T13:55:11;41.20;;;7.32;;
39888;SDS011;25563;50.844;4.308;2023-11-19T13:57:39;29.52;;;5.22;;
39888;SDS011;25563;50.844;4.308;2023-11-19T14:00:07;26.55;;;5.05;;
39888;SDS011;25563;50.844;4.308;2023-11-19T14:02:43;24.80;;;5.50;;
39888;SDS011;25563;50.844;4.308;2023-11-19T14:05:10;20.70;;;4.80;;
39888;SDS011;25563;50.844;4.308;2023-11-19T14:07:36;34.17;;;5.45;;
39888;SDS011;25563;50.844;4.308;2023-11-19T14:10:05;26.73;;;5.55;;
39888;SDS011;25563;50.844;4.308;2023-11-19T14:12:32;31.60;;;4.90;;
39888;SDS011;25563;50.844;4.308;2023-11-19T14:14:58;35.42;;;4.90;;
39888;SDS011;25563;50.844;4.308;2023-11-19T14:17:25;22.63;;;4.68;;
39888;SDS011;25563;50.844;4.308;2023-11-19T14:19:51;30.80;;;5.68;;
39888;SDS011;25563;50.844;4.308;2023-11-19T14:22:17;40.33;;;6.00;;
39888;SDS011;25563;50.844;4.308;2023-11-19T14:24:44;32.05;;;5.57;;
39888;SDS011;25563;50.844;4.308;2023-11-19T14:27:11;28.58;;;4.45;;
39888;SDS011;25563;50.844;4.308;2023-11-19T14:29:37;29.33;;;4.82;;
39888;SDS011;25563;50.844;4.308;2023-11-19T14:32:03;27.75;;;5.22;;
39888;SDS011;25563;50.844;4.308;2023-11-19T14:34:29;31.63;;;5.22;;
39888;SDS011;25563;50.844;4.308;2023-11-19T14:36:56;44.38;;;6.40;;
39888;SDS011;25563;50.844;4.308;2023-11-19T14:39:22;34.70;;;5.88;;
39888;SDS011;25563;50.844;4.308;2023-11-19T14:41:48;41.90;;;6.93;;
39888;SDS011;25563;50.844;4.308;2023-11-19T14:44:14;29.60;;;4.93;;
39888;SDS011;25563;50.844;4.308;2023-11-19T14:46:40;44.53;;;4.93;;
39888;SDS011;25563;50.844;4.308;2023-11-19T14:49:06;40.13;;;5.00;;
39888;SDS011;25563;50.844;4.308;2023-11-19T14:51:37;38.08;;;6.93;;
39888;SDS011;25563;50.844;4.308;2023-11-19T14:56:32;29.92;;;5.30;;
39888;SDS011;25563;50.844;4.308;2023-11-19T14:58:58;39.17;;;5.60;;
39888;SDS011;25563;50.844;4.308;2023-11-19T15:01:24;26.75;;;4.80;;
39888;SDS011;25563;50.844;4.308;2023-11-19T15:03:50;28.90;;;4.72;;
39888;SDS011;25563;50.844;4.308;2023-11-19T15:06:16;29.40;;;5.00;;